Time;durP1;ratioP1;P1;durP2;ratioP2;P2;SDS_P1;SDS_P2;PMS_P1;PMS_P2;Temp;Humidity;BMP_temperature;BMP_pressure;BME280_temperature;BME280_humidity;BME280_pressure;Samples;Min_cycle;Max_cycle;Signal;HPM_P1;HPM_P2
2023/10/30 00:01:45;;;;;;;2.25;1.10;;;;;;;8.96;80.66;92000.56;2055107;69;20225;-76
2023/10/30 00:04:11;;;;;;;5.43;2.63;;;;;;;8.70;80.49;91999.09;2055113;69;20193;-75
2023/10/30 00:06:37;;;;;;;6.28;2.30;;;;;;;8.78;80.35;91991.13;2055587;69;20233;-75
2023/10/30 00:09:06;;;;;;;7.50;1.90;;;;;;;8.69;81.39;91987.13;2055236;69;20133;-76
2023/10/30 00:11:33;;;;;;;4.95;2.03;;;;;;;8.50;81.88;91991.00;2054998;69;20153;-77
2023/10/30 00:14:04;;;;;;;3.70;2.05;;;;;;;8.78;80.10;91997.47;2055102;69;20253;-75
2023/10/30 00:16:30;;;;;;;3.60;2.08;;;;;;;8.74;80.31;91997.22;2055114;69;20661;-76
2023/10/30 00:19:02;;;;;;;9.63;2.55;;;;;;;8.65;80.49;91992.50;2055129;70;20180;-76
2023/10/30 00:21:31;;;;;;;3.88;2.35;;;;;;;8.80;79.75;91997.59;2055121;70;20621;-76
2023/10/30 00:24:01;;;;;;;5.53;1.95;;;;;;;8.93;79.06;92001.06;2054967;69;20164;-76
2023/10/30 00:26:27;;;;;;;5.22;1.98;;;;;;;8.59;79.82;91989.38;2055205;69;20145;-74
2023/10/30 00:28:57;;;;;;;5.22;2.03;;;;;;;8.56;80.94;92001.81;2056929;69;20525;-75
2023/10/30 00:31:25;;;;;;;4.93;2.50;;;;;;;8.69;80.28;92003.25;2057127;69;20138;-76
2023/10/30 00:33:53;;;;;;;2.95;1.88;;;;;;;8.57;80.26;91995.59;2057290;69;20153;-76
2023/10/30 00:36:19;;;;;;;4.07;2.03;;;;;;;8.57;81.29;92004.03;2054368;70;20868;-76
2023/10/30 00:38:45;;;;;;;3.25;1.80;;;;;;;8.77;80.16;91990.41;2054146;69;20595;-76
2023/10/30 00:41:11;;;;;;;5.40;1.90;;;;;;;8.82;79.89;92000.50;2054109;69;20213;-75
2023/10/30 00:43:38;;;;;;;3.30;2.10;;;;;;;8.82;80.02;92006.09;2057243;69;20153;-76
2023/10/30 00:46:06;;;;;;;4.70;1.88;;;;;;;8.84;79.50;92000.63;2054128;70;20215;-74
2023/10/30 00:48:35;;;;;;;5.05;1.73;;;;;;;8.54;81.36;91998.91;2054825;70;20229;-75
2023/10/30 00:51:01;;;;;;;6.53;1.70;;;;;;;8.62;80.64;92002.91;2054664;70;20169;-75
2023/10/30 00:53:28;;;;;;;5.18;1.98;;;;;;;8.47;81.82;92013.91;2054999;69;20248;-75
2023/10/30 00:55:54;;;;;;;6.05;1.88;;;;;;;8.64;80.87;92003.00;2054923;69;20177;-75
2023/10/30 00:58:20;;;;;;;5.40;1.60;;;;;;;8.73;80.35;91997.84;2057133;69;20620;-74
2023/10/30 01:00:51;;;;;;;4.65;1.38;;;;;;;8.62;80.96;92000.09;2054371;70;20184;-75
2023/10/30 01:03:24;;;;;;;2.97;1.60;;;;;;;8.75;80.03;91997.97;2054666;69;20150;-74
2023/10/30 01:05:58;;;;;;;4.45;1.70;;;;;;;8.45;81.20;92006.13;2054478;70;20168;-76
2023/10/30 01:08:27;;;;;;;2.45;1.70;;;;;;;8.43;81.44;92005.28;2054443;69;20154;-76
2023/10/30 01:10:56;;;;;;;2.60;1.50;;;;;;;8.61;80.60;91981.81;2055106;69;20229;-75
2023/10/30 01:13:23;;;;;;;3.38;1.60;;;;;;;8.44;81.12;91995.53;2054416;70;20320;-75
2023/10/30 01:15:53;;;;;;;2.67;1.70;;;;;;;8.53;80.83;92003.06;2051410;70;20150;-75
2023/10/30 01:18:19;;;;;;;2.40;1.50;;;;;;;8.42;81.00;91990.53;2056924;69;21022;-75
2023/10/30 01:20:46;;;;;;;2.85;1.20;;;;;;;8.67;80.87;91989.84;2054762;69;20225;-76
2023/10/30 01:23:16;;;;;;;3.17;1.70;;;;;;;8.30;81.68;91987.75;2054302;70;20224;-76
2023/10/30 01:25:46;;;;;;;3.65;1.60;;;;;;;8.37;81.09;91972.72;2054503;70;20593;-75
2023/10/30 01:28:15;;;;;;;3.10;1.42;;;;;;;8.49;80.62;91966.38;2055046;69;20183;-76
2023/10/30 01:30:41;;;;;;;3.28;1.60;;;;;;;8.43;81.25;91977.97;2054511;69;20166;-76
2023/10/30 01:33:07;;;;;;;5.45;1.40;;;;;;;8.51;80.35;91967.19;2055048;69;20188;-75
2023/10/30 01:35:34;;;;;;;2.65;1.42;;;;;;;8.50;80.19;91976.97;2054976;69;20180;-76
2023/10/30 01:38:00;;;;;;;3.17;1.40;;;;;;;8.59;79.52;91986.56;2054463;70;20173;-75
2023/10/30 01:40:30;;;;;;;4.95;1.55;;;;;;;8.49;80.49;91977.59;2054697;69;20249;-75
2023/10/30 01:43:09;;;;;;;3.08;1.10;;;;;;;8.63;79.57;91979.09;2054938;69;20240;-74
2023/10/30 01:45:35;;;;;;;6.73;1.57;;;;;;;8.40;80.51;91977.13;2054355;70;20229;-76
2023/10/30 01:48:02;;;;;;;3.45;1.63;;;;;;;8.42;80.05;91964.56;2055005;69;20134;-75
2023/10/30 01:50:32;;;;;;;2.20;1.45;;;;;;;8.44;80.40;91959.78;2054907;69;20731;-75
2023/10/30 01:53:01;;;;;;;1.90;1.30;;;;;;;8.57;78.73;91964.75;2057272;69;20257;-75
2023/10/30 01:55:31;;;;;;;4.55;1.30;;;;;;;8.60;79.45;91971.19;2054847;69;20249;-75
2023/10/30 01:58:01;;;;;;;2.03;1.30;;;;;;;8.52;80.47;91973.53;2055142;69;20276;-75
2023/10/30 02:00:28;;;;;;;3.50;1.52;;;;;;;8.47;79.75;91964.16;2054321;69;20156;-76
2023/10/30 02:02:58;;;;;;;3.50;1.70;;;;;;;8.32;79.44;91953.47;2054879;69;20265;-76
2023/10/30 02:05:28;;;;;;;2.13;1.27;;;;;;;8.49;80.55;91960.75;2054986;69;20248;-76
2023/10/30 02:08:00;;;;;;;3.05;1.70;;;;;;;8.30;80.84;91973.00;2055060;69;20625;-76
2023/10/30 02:10:32;;;;;;;3.22;1.33;;;;;;;8.38;80.83;91976.25;2054916;69;20772;-75
2023/10/30 02:12:58;;;;;;;3.13;1.45;;;;;;;8.49;79.83;91961.47;2054888;69;20554;-76
2023/10/30 02:15:27;;;;;;;1.48;0.95;;;;;;;8.56;80.72;91954.13;2054379;70;20169;-75
2023/10/30 02:18:02;;;;;;;1.13;0.98;;;;;;;8.56;81.91;91954.84;2051734;70;20154;-76
2023/10/30 02:20:29;;;;;;;2.15;1.20;;;;;;;8.47;81.26;91960.63;2054767;70;20192;-75
2023/10/30 02:22:55;;;;;;;1.38;1.10;;;;;;;8.59;80.36;91956.44;2057234;69;20546;-76
2023/10/30 02:25:24;;;;;;;3.95;1.02;;;;;;;8.28;81.36;91945.53;2054201;70;20157;-76
2023/10/30 02:27:54;;;;;;;2.65;1.10;;;;;;;8.42;81.53;91959.66;2054865;69;20145;-76
2023/10/30 02:30:24;;;;;;;1.13;1.02;;;;;;;8.53;80.87;91944.88;2057107;69;20205;-77
2023/10/30 02:32:50;;;;;;;5.25;1.23;;;;;;;8.61;81.29;91936.94;2054861;69;20237;-75
2023/10/30 02:35:17;;;;;;;0.70;0.70;;;;;;;8.78;81.33;91954.63;2054596;69;20628;-76
2023/10/30 02:37:44;;;;;;;1.67;1.15;;;;;;;8.52;80.97;91934.25;2054690;69;20163;-75
2023/10/30 02:40:11;;;;;;;1.58;1.38;;;;;;;8.68;80.51;91945.66;2054473;69;20174;-75
2023/10/30 02:42:38;;;;;;;2.08;1.20;;;;;;;8.55;80.51;91944.97;2054788;69;20245;-76
2023/10/30 02:45:04;;;;;;;1.95;1.20;;;;;;;8.35;81.81;91930.53;2054922;69;20161;-76
2023/10/30 02:47:31;;;;;;;1.73;1.10;;;;;;;8.57;80.95;91935.97;2054823;69;20150;-76
2023/10/30 02:49:57;;;;;;;2.22;1.10;;;;;;;8.65;80.47;91947.63;2054769;69;20138;-76
2023/10/30 02:52:24;;;;;;;3.28;1.17;;;;;;;8.68;79.80;91940.78;2055072;69;20173;-77
2023/10/30 02:54:49;;;;;;;2.58;1.00;;;;;;;8.65;80.42;91945.53;2055262;69;20146;-76
2023/10/30 02:57:15;;;;;;;1.55;1.00;;;;;;;8.61;80.94;91934.13;2055577;69;20130;-76
2023/10/30 02:59:41;;;;;;;2.28;1.10;;;;;;;8.34;81.94;91928.34;2055561;69;20152;-76
2023/10/30 03:02:09;;;;;;;1.35;1.15;;;;;;;8.14;82.89;91939.13;2054831;70;20150;-76
2023/10/30 03:04:35;;;;;;;8.23;1.90;;;;;;;8.50;81.93;91945.38;2055398;69;20212;-77
2023/10/30 03:07:01;;;;;;;1.75;1.38;;;;;;;8.21;82.20;91943.75;2055455;69;20154;-76
2023/10/30 03:09:31;;;;;;;1.83;1.15;;;;;;;8.24;82.19;91934.09;2057467;69;20224;-77
2023/10/30 03:11:57;;;;;;;1.27;1.02;;;;;;;8.56;80.83;91931.69;2055523;70;20360;-77
2023/10/30 03:14:23;;;;;;;2.03;1.15;;;;;;;8.59;81.07;91936.78;2057669;69;20185;-76
2023/10/30 03:16:51;;;;;;;2.55;1.10;;;;;;;8.63;80.82;91947.53;2055399;69;20146;-77
2023/10/30 03:19:18;;;;;;;2.05;1.20;;;;;;;8.66;80.31;91932.25;2055369;69;20145;-76
2023/10/30 03:21:44;;;;;;;1.23;1.00;;;;;;;8.64;82.03;91927.25;2057661;69;20233;-76
2023/10/30 03:24:09;;;;;;;3.05;1.27;;;;;;;8.46;82.29;91919.91;2057498;69;20684;-77
2023/10/30 03:26:35;;;;;;;1.77;1.20;;;;;;;8.67;81.35;91930.19;2054822;70;20165;-76
2023/10/30 03:29:01;;;;;;;3.03;1.30;;;;;;;8.72;80.87;91924.16;2055333;70;20145;-77
2023/10/30 03:31:27;;;;;;;3.95;1.30;;;;;;;8.79;80.87;91920.34;2055394;69;20173;-76
2023/10/30 03:33:53;;;;;;;3.47;1.08;;;;;;;8.84;81.36;91922.03;2057592;69;20161;-76
2023/10/30 03:36:20;;;;;;;2.25;1.27;;;;;;;8.40;82.23;91932.25;2055327;69;20150;-76
2023/10/30 03:38:45;;;;;;;2.72;1.30;;;;;;;8.47;82.91;91936.09;2054544;69;20270;-76
2023/10/30 03:41:11;;;;;;;1.75;1.30;;;;;;;8.60;82.01;91927.03;2055253;69;20486;-77
2023/10/30 03:43:36;;;;;;;1.60;1.15;;;;;;;8.35;82.15;91936.16;2055316;69;20146;-76
2023/10/30 03:46:02;;;;;;;4.95;1.30;;;;;;;8.40;83.24;91937.84;2055227;69;20138;-77
2023/10/30 03:48:28;;;;;;;3.50;1.50;;;;;;;8.63;81.72;91939.81;2055182;69;20153;-76
2023/10/30 03:50:53;;;;;;;6.20;1.10;;;;;;;8.70;81.43;91937.34;2055295;69;20241;-76
2023/10/30 03:53:19;;;;;;;3.58;1.30;;;;;;;8.59;81.46;91938.88;2055251;69;20146;-76
2023/10/30 03:55:45;;;;;;;2.03;1.38;;;;;;;8.64;81.53;91932.13;2055312;69;20154;-76
2023/10/30 03:58:10;;;;;;;2.55;1.40;;;;;;;8.73;80.41;91938.94;2055306;69;20529;-76
2023/10/30 04:00:36;;;;;;;3.80;1.27;;;;;;;8.76;80.78;91941.25;2055401;69;20498;-76
2023/10/30 04:03:02;;;;;;;2.10;1.20;;;;;;;8.70;81.26;91931.75;2055112;69;20188;-76
2023/10/30 04:05:27;;;;;;;2.90;0.90;;;;;;;8.76;81.33;91918.06;2055307;69;20803;-77
2023/10/30 04:07:53;;;;;;;1.52;1.35;;;;;;;8.62;81.85;91938.38;2055309;69;20504;-77
2023/10/30 04:10:19;;;;;;;3.58;1.30;;;;;;;8.59;82.54;91933.25;2055226;69;20133;-76
2023/10/30 04:12:45;;;;;;;1.75;1.30;;;;;;;8.78;81.36;91932.91;2055344;69;20141;-77
2023/10/30 04:15:10;;;;;;;2.97;1.83;;;;;;;8.71;81.35;91952.88;2055261;69;20161;-77
2023/10/30 04:17:36;;;;;;;4.80;2.97;;;;;;;8.77;80.73;91948.31;2055279;69;20146;-76
2023/10/30 04:20:02;;;;;;;6.22;2.55;;;;;;;8.87;79.94;91940.44;2055215;69;20170;-76
2023/10/30 04:22:28;;;;;;;5.40;2.60;;;;;;;8.75;80.75;91948.19;2055234;69;20612;-77
2023/10/30 04:24:54;;;;;;;2.80;2.20;;;;;;;8.78;80.47;91940.59;2055186;69;20598;-76
2023/10/30 04:27:21;;;;;;;2.50;1.90;;;;;;;8.78;80.19;91924.50;2055266;69;20612;-76
2023/10/30 04:29:47;;;;;;;2.85;1.60;;;;;;;8.57;81.82;91939.50;2055178;69;20169;-77
2023/10/30 04:32:14;;;;;;;1.63;1.50;;;;;;;8.71;81.11;91938.84;2054662;69;20228;-76
2023/10/30 04:34:40;;;;;;;3.47;1.80;;;;;;;8.67;80.83;91944.22;2055314;69;20142;-76
2023/10/30 04:37:06;;;;;;;3.83;2.30;;;;;;;8.58;81.43;91940.94;2055124;69;20146;-76
2023/10/30 04:39:31;;;;;;;10.80;5.85;;;;;;;8.65;81.12;91937.13;2054983;69;20161;-76
2023/10/30 04:41:57;;;;;;;29.08;13.80;;;;;;;8.60;80.80;91929.09;2055216;70;20208;-77
2023/10/30 04:44:23;;;;;;;34.28;13.13;;;;;;;8.63;80.98;91920.19;2055293;70;20142;-76
2023/10/30 04:46:48;;;;;;;23.92;11.57;;;;;;;8.57;80.73;91917.06;2055092;69;20172;-76
2023/10/30 04:49:14;;;;;;;23.25;12.07;;;;;;;8.14;82.51;91905.50;2055144;69;20189;-76
2023/10/30 04:51:39;;;;;;;17.20;10.48;;;;;;;8.21;83.38;91898.91;2055203;69;20158;-76
2023/10/30 04:54:05;;;;;;;15.55;8.23;;;;;;;8.33;82.26;91891.16;2055141;69;20194;-76
2023/10/30 04:56:31;;;;;;;12.05;5.90;;;;;;;8.39;81.07;91913.25;2055181;69;20138;-76
2023/10/30 04:58:57;;;;;;;6.32;3.60;;;;;;;8.43;81.21;91918.31;2055179;69;20177;-76
2023/10/30 05:01:22;;;;;;;8.88;4.55;;;;;;;8.46;80.84;91917.81;2055160;69;20157;-76
2023/10/30 05:03:48;;;;;;;8.60;4.55;;;;;;;8.30;81.86;91912.03;2055323;69;20228;-76
2023/10/30 05:06:13;;;;;;;7.13;4.53;;;;;;;8.26;83.25;91906.19;2055152;69;20590;-76
2023/10/30 05:08:39;;;;;;;7.95;4.00;;;;;;;8.30;82.28;91909.22;2055062;69;20142;-76
2023/10/30 05:11:05;;;;;;;6.57;2.70;;;;;;;8.31;81.91;91895.94;2054599;69;20242;-76
2023/10/30 05:13:30;;;;;;;6.15;2.95;;;;;;;8.37;81.24;91890.66;2054945;69;20240;-76
2023/10/30 05:15:57;;;;;;;6.88;4.28;;;;;;;8.25;81.46;91899.13;2054848;69;20241;-77
2023/10/30 05:18:30;;;;;;;11.20;5.32;;;;;;;8.12;82.62;91908.19;2055109;69;20146;-77
2023/10/30 05:20:55;;;;;;;10.43;5.05;;;;;;;8.14;82.00;91899.88;2054545;70;20157;-77
2023/10/30 05:23:21;;;;;;;6.35;4.10;;;;;;;8.30;81.34;91909.22;2054522;69;20138;-76
2023/10/30 05:25:47;;;;;;;8.57;4.40;;;;;;;8.09;81.88;91904.53;2055160;69;20146;-76
2023/10/30 05:28:12;;;;;;;7.13;3.67;;;;;;;8.25;81.69;91899.13;2055027;69;20582;-77
2023/10/30 05:30:38;;;;;;;8.10;2.67;;;;;;;8.21;81.68;91901.69;2055122;69;20161;-76
2023/10/30 05:33:04;;;;;;;2.88;1.40;;;;;;;8.31;82.24;91898.72;2055150;69;20142;-76
2023/10/30 05:35:30;;;;;;;2.38;0.95;;;;;;;8.32;82.30;91889.69;2055184;69;20200;-76
2023/10/30 05:37:56;;;;;;;2.50;1.00;;;;;;;8.48;81.29;91889.19;2055184;69;20161;-76
2023/10/30 05:40:23;;;;;;;3.78;2.22;;;;;;;8.00;82.88;91854.22;2054971;69;20156;-76
2023/10/30 05:42:49;;;;;;;8.70;4.07;;;;;;;8.35;82.16;91915.78;2055084;69;20701;-77
2023/10/30 05:45:15;;;;;;;6.43;3.70;;;;;;;8.43;81.51;91913.47;2055012;69;20144;-76
2023/10/30 05:47:41;;;;;;;3.60;2.42;;;;;;;8.34;81.50;91912.25;2055016;69;20154;-76
2023/10/30 05:50:07;;;;;;;3.13;2.10;;;;;;;8.05;83.25;91911.97;2055043;69;20605;-76
2023/10/30 05:52:32;;;;;;;2.80;2.20;;;;;;;8.29;82.68;91921.03;2055176;69;20157;-76
2023/10/30 05:54:58;;;;;;;3.55;2.30;;;;;;;8.35;81.25;91901.75;2054386;70;20154;-76
2023/10/30 05:57:24;;;;;;;6.22;3.35;;;;;;;8.41;80.88;91918.94;2054922;69;20138;-76
2023/10/30 05:59:49;;;;;;;9.38;4.75;;;;;;;8.38;81.30;91920.94;2055002;69;20233;-76
2023/10/30 06:02:16;;;;;;;8.00;4.07;;;;;;;8.39;80.18;91911.16;2055036;69;20173;-76
2023/10/30 06:04:41;;;;;;;5.13;2.75;;;;;;;8.17;82.98;91909.88;2055115;70;20181;-76
2023/10/30 06:07:07;;;;;;;6.30;3.17;;;;;;;8.27;82.04;91915.31;2055013;69;20661;-76
2023/10/30 06:09:33;;;;;;;7.28;3.42;;;;;;;8.36;81.30;91911.63;2054855;69;20149;-77
2023/10/30 06:11:58;;;;;;;5.22;3.42;;;;;;;8.33;81.17;91919.19;2054944;69;20154;-76
2023/10/30 06:14:24;;;;;;;3.05;2.17;;;;;;;8.29;83.45;91904.22;2054979;69;20149;-76
2023/10/30 06:16:51;;;;;;;3.85;1.50;;;;;;;8.50;82.64;91903.31;2055159;69;20142;-76
2023/10/30 06:19:18;;;;;;;6.90;4.28;;;;;;;8.40;82.19;91909.81;2055047;69;20138;-77
2023/10/30 06:21:43;;;;;;;5.03;3.35;;;;;;;8.42;82.43;91902.84;2055100;69;20621;-76
2023/10/30 06:24:09;;;;;;;5.30;3.30;;;;;;;8.69;81.27;91902.22;2054809;69;20126;-77
2023/10/30 06:26:47;;;;;;;3.33;1.90;;;;;;;8.72;81.05;91901.72;2054712;69;20140;-77
2023/10/30 06:29:12;;;;;;;9.57;4.10;;;;;;;8.49;81.81;91905.38;2054522;69;20577;-77
2023/10/30 06:31:38;;;;;;;6.40;3.90;;;;;;;8.69;81.02;91897.34;2054916;69;20162;-77
2023/10/30 06:34:03;;;;;;;7.65;4.05;;;;;;;8.70;80.74;91898.06;2054951;69;20517;-77
2023/10/30 06:36:29;;;;;;;6.20;3.95;;;;;;;8.77;80.47;91920.25;2054948;70;20300;-77
2023/10/30 06:38:55;;;;;;;5.30;3.25;;;;;;;8.68;80.92;91906.38;2054734;69;20219;-77
2023/10/30 06:41:21;;;;;;;5.45;3.75;;;;;;;8.31;81.73;91895.94;2057197;69;20138;-77
2023/10/30 06:43:47;;;;;;;7.93;3.80;;;;;;;8.70;81.10;91914.91;2055038;69;20659;-77
2023/10/30 06:46:12;;;;;;;9.85;3.72;;;;;;;8.85;80.62;91895.44;2055112;69;20150;-76
2023/10/30 06:48:38;;;;;;;5.28;3.30;;;;;;;8.79;81.30;91908.38;2055030;69;20267;-76
2023/10/30 06:51:04;;;;;;;5.93;3.60;;;;;;;8.79;81.32;91909.13;2054912;70;20146;-76
2023/10/30 06:53:30;;;;;;;6.38;3.60;;;;;;;9.06;80.70;91913.34;2054824;69;20176;-76
2023/10/30 06:55:56;;;;;;;6.05;4.10;;;;;;;9.08;80.01;91928.25;2054884;69;20158;-76
2023/10/30 06:58:23;;;;;;;6.93;4.20;;;;;;;9.18;79.86;91930.13;2054958;69;20291;-76
2023/10/30 07:00:49;;;;;;;7.57;3.80;;;;;;;9.25;79.44;91920.66;2054883;69;20153;-76
2023/10/30 07:03:15;;;;;;;7.88;3.90;;;;;;;9.23;79.18;91915.69;2054911;69;20618;-76
2023/10/30 07:05:42;;;;;;;10.57;5.60;;;;;;;8.90;81.27;91885.88;2055008;69;20185;-76
2023/10/30 07:08:08;;;;;;;10.68;5.97;;;;;;;9.04;80.28;91871.88;2054882;69;20141;-76
2023/10/30 07:10:33;;;;;;;13.55;6.82;;;;;;;9.25;80.14;91878.53;2054816;69;20553;-76
2023/10/30 07:12:59;;;;;;;8.68;4.68;;;;;;;9.29;79.59;91871.06;2054852;69;20145;-76
2023/10/30 07:15:26;;;;;;;10.07;4.82;;;;;;;9.27;80.82;91875.84;2054975;69;20142;-76
2023/10/30 07:17:56;;;;;;;9.65;5.18;;;;;;;9.37;79.63;91881.97;2054895;69;20613;-76
2023/10/30 07:20:22;;;;;;;7.03;3.40;;;;;;;9.00;81.13;91896.19;2054823;69;20146;-77
2023/10/30 07:22:48;;;;;;;6.18;4.22;;;;;;;9.28;79.87;91894.88;2054825;69;20205;-76
2023/10/30 07:25:14;;;;;;;6.03;3.40;;;;;;;9.29;80.36;91895.59;2054711;69;20514;-76
2023/10/30 07:27:39;;;;;;;5.45;3.33;;;;;;;9.19;80.00;91878.94;2054846;69;20142;-77
2023/10/30 07:30:06;;;;;;;7.05;3.70;;;;;;;9.53;78.91;91887.69;2054851;69;20138;-77
2023/10/30 07:32:31;;;;;;;16.48;11.40;;;;;;;9.43;79.48;91913.19;2054728;69;20157;-76
2023/10/30 07:34:57;;;;;;;20.70;11.50;;;;;;;9.70;79.05;91918.09;2054825;70;20146;-76
2023/10/30 07:37:22;;;;;;;13.40;8.02;;;;;;;9.82;78.11;91901.13;2054841;69;20146;-77
2023/10/30 07:39:48;;;;;;;11.40;7.55;;;;;;;9.95;77.96;91903.22;2055057;69;20181;-75
2023/10/30 07:42:14;;;;;;;11.93;8.20;;;;;;;9.99;77.46;91882.97;2055235;70;20599;-76
2023/10/30 07:44:40;;;;;;;13.70;8.07;;;;;;;10.19;77.35;91884.00;2055151;69;20149;-76
2023/10/30 07:47:05;;;;;;;15.30;8.55;;;;;;;9.76;78.41;91898.75;2054642;69;20169;-76
2023/10/30 07:49:31;;;;;;;10.60;7.13;;;;;;;10.18;77.87;91911.41;2055306;69;20598;-77
2023/10/30 07:51:57;;;;;;;11.93;5.85;;;;;;;10.13;77.92;91892.88;2055128;69;20177;-77
2023/10/30 07:54:23;;;;;;;11.95;7.07;;;;;;;9.80;79.84;91901.75;2055301;69;20157;-77
2023/10/30 07:56:49;;;;;;;14.93;8.38;;;;;;;10.07;79.01;91917.84;2055253;69;20216;-77
2023/10/30 07:59:14;;;;;;;17.00;8.85;;;;;;;10.51;77.68;91895.41;2055248;69;20154;-77
2023/10/30 08:01:40;;;;;;;9.40;5.60;;;;;;;10.16;76.65;91899.31;2055344;69;20162;-77
2023/10/30 08:04:09;;;;;;;15.75;8.65;;;;;;;10.31;77.82;91895.88;2055335;69;20245;-77
2023/10/30 08:06:35;;;;;;;13.45;7.28;;;;;;;10.71;76.78;91893.53;2054568;70;20169;-77
2023/10/30 08:09:01;;;;;;;10.05;5.90;;;;;;;10.97;76.04;91901.78;2055007;69;20581;-77
2023/10/30 08:11:27;;;;;;;7.65;5.15;;;;;;;11.12;75.95;91904.59;2055387;69;20530;-77
2023/10/30 08:13:53;;;;;;;7.35;5.00;;;;;;;11.29;74.90;91910.97;2055113;69;20610;-77
2023/10/30 08:16:19;;;;;;;21.63;10.85;;;;;;;10.93;75.88;91893.84;2055173;69;20261;-77
2023/10/30 08:18:44;;;;;;;14.52;10.00;;;;;;;11.25;76.75;91882.63;2055214;69;20502;-77
2023/10/30 08:21:10;;;;;;;21.40;11.68;;;;;;;11.32;76.11;91873.81;2055212;69;20142;-76
2023/10/30 08:23:37;;;;;;;24.00;14.27;;;;;;;11.75;75.19;91874.94;2055315;69;20181;-77
2023/10/30 08:26:04;;;;;;;15.48;9.48;;;;;;;11.82;75.00;91885.88;2055196;69;20137;-77
2023/10/30 08:28:30;;;;;;;12.45;8.45;;;;;;;12.13;74.31;91885.06;2055363;69;20244;-77
2023/10/30 08:30:56;;;;;;;16.40;8.40;;;;;;;12.12;73.82;91891.38;2055275;69;20185;-77
2023/10/30 08:33:21;;;;;;;12.82;7.95;;;;;;;11.40;76.11;91901.63;2055185;69;20192;-76
2023/10/30 08:35:47;;;;;;;13.40;7.53;;;;;;;11.90;75.54;91899.59;2055075;69;20138;-76
2023/10/30 08:38:13;;;;;;;13.65;7.40;;;;;;;12.30;75.00;91902.69;2055329;69;20157;-76
2023/10/30 08:40:38;;;;;;;9.02;6.43;;;;;;;12.32;73.96;91889.38;2055052;69;20242;-76
2023/10/30 08:43:04;;;;;;;9.30;6.40;;;;;;;12.34;73.75;91897.94;2055135;69;20570;-77
2023/10/30 08:45:29;;;;;;;10.50;6.88;;;;;;;12.50;72.88;91891.50;2055140;69;20153;-76
2023/10/30 08:47:55;;;;;;;12.75;7.18;;;;;;;12.62;72.70;91898.38;2055152;69;20145;-75
2023/10/30 08:50:21;;;;;;;11.30;6.45;;;;;;;12.69;72.51;91874.66;2055054;69;20126;-75
2023/10/30 08:52:46;;;;;;;9.73;6.43;;;;;;;12.87;72.19;91863.34;2055149;69;20613;-76
2023/10/30 08:55:12;;;;;;;13.70;7.00;;;;;;;12.84;72.02;91861.09;2055047;69;20150;-76
2023/10/30 08:57:38;;;;;;;8.85;5.90;;;;;;;12.41;74.03;91862.22;2055071;69;20519;-76
2023/10/30 09:00:07;;;;;;;9.23;6.35;;;;;;;12.77;73.33;91862.94;2055256;69;20534;-75
2023/10/30 09:02:36;;;;;;;8.57;6.30;;;;;;;12.84;73.37;91841.31;2055160;69;20130;-76
2023/10/30 09:05:03;;;;;;;15.73;6.75;;;;;;;12.66;73.21;91853.34;2054644;69;20154;-75
2023/10/30 09:07:29;;;;;;;13.23;7.78;;;;;;;12.91;72.48;91862.78;2055193;69;20256;-75
2023/10/30 09:09:55;;;;;;;12.35;8.05;;;;;;;12.97;72.55;91855.28;2054876;69;20229;-75
2023/10/30 09:12:21;;;;;;;12.52;7.97;;;;;;;13.06;72.27;91864.06;2055008;69;20246;-76
2023/10/30 09:14:47;;;;;;;14.10;9.23;;;;;;;12.58;72.31;91863.59;2055122;69;20176;-76
2023/10/30 09:17:12;;;;;;;12.40;8.60;;;;;;;13.00;72.71;91861.72;2055132;69;20617;-76
2023/10/30 09:19:38;;;;;;;17.73;9.23;;;;;;;13.07;73.39;91840.81;2054999;69;20133;-74
2023/10/30 09:22:04;;;;;;;15.35;9.52;;;;;;;13.23;72.62;91840.69;2054860;69;20582;-75
2023/10/30 09:24:30;;;;;;;12.43;8.63;;;;;;;13.46;71.11;91828.84;2054916;70;20598;-75
2023/10/30 09:26:56;;;;;;;13.73;9.23;;;;;;;13.67;70.90;91821.81;2055094;69;20179;-75
2023/10/30 09:29:24;;;;;;;9.07;6.45;;;;;;;13.75;69.84;91821.38;2055780;69;20245;-75
2023/10/30 09:31:50;;;;;;;10.27;7.80;;;;;;;13.52;71.05;91810.66;2054970;69;20172;-75
2023/10/30 09:34:16;;;;;;;13.27;7.70;;;;;;;13.00;71.56;91832.75;2055010;69;20153;-74
2023/10/30 09:36:42;;;;;;;10.18;6.65;;;;;;;13.21;71.72;91835.69;2055146;69;20146;-75
2023/10/30 09:39:07;;;;;;;8.38;5.97;;;;;;;13.20;72.07;91839.16;2054842;69;20221;-77
2023/10/30 09:41:40;;;;;;;10.32;5.13;;;;;;;13.09;70.79;91840.16;2055033;69;20534;-74
2023/10/30 09:44:09;;;;;;;6.97;4.80;;;;;;;13.30;70.59;91825.44;2055120;69;20168;-74
2023/10/30 09:46:37;;;;;;;7.63;5.50;;;;;;;13.39;69.80;91820.81;2054941;69;20196;-75
2023/10/30 09:49:04;;;;;;;10.93;5.10;;;;;;;13.15;70.65;91823.44;2055121;69;20230;-75
2023/10/30 09:51:30;;;;;;;7.88;5.18;;;;;;;13.18;71.21;91828.50;2055021;69;20149;-75
2023/10/30 09:53:58;;;;;;;10.07;5.50;;;;;;;13.32;70.51;91833.97;2054434;69;20184;-75
2023/10/30 09:56:26;;;;;;;9.02;5.45;;;;;;;12.95;72.43;91824.09;2055116;70;20574;-76
2023/10/30 09:58:52;;;;;;;7.43;5.07;;;;;;;13.17;71.88;91823.50;2055008;69;20179;-75
2023/10/30 10:01:20;;;;;;;10.63;5.15;;;;;;;13.24;71.96;91816.75;2054977;69;20212;-75
2023/10/30 10:03:46;;;;;;;9.98;5.38;;;;;;;13.15;73.09;91812.13;2054988;70;20154;-75
2023/10/30 10:06:12;;;;;;;13.38;7.68;;;;;;;13.12;72.48;91831.09;2055013;70;20145;-77
2023/10/30 10:08:38;;;;;;;13.18;8.48;;;;;;;13.34;71.57;91805.06;2054906;69;20605;-75
2023/10/30 10:11:05;;;;;;;11.18;6.82;;;;;;;13.56;71.05;91796.66;2054991;70;20584;-76
2023/10/30 10:13:33;;;;;;;12.10;7.22;;;;;;;13.48;70.79;91791.44;2054980;69;20150;-75
2023/10/30 10:16:01;;;;;;;14.07;7.97;;;;;;;13.68;71.40;91805.56;2054981;69;20154;-76
2023/10/30 10:18:28;;;;;;;12.48;7.55;;;;;;;14.02;70.98;91788.31;2055073;69;20146;-76
2023/10/30 10:21:05;;;;;;;9.50;6.07;;;;;;;14.17;69.68;91798.75;2055021;69;20176;-76
2023/10/30 10:23:33;;;;;;;8.98;6.00;;;;;;;14.16;68.60;91800.84;2055014;69;20142;-75
2023/10/30 10:26:03;;;;;;;10.75;6.00;;;;;;;14.55;67.86;91787.97;2055080;69;20176;-76
2023/10/30 10:28:28;;;;;;;10.82;5.97;;;;;;;14.47;67.93;91791.22;2055023;69;20659;-76
2023/10/30 10:30:55;;;;;;;9.32;5.78;;;;;;;14.46;67.75;91772.06;2054825;69;20590;-76
2023/10/30 10:33:26;;;;;;;9.65;5.90;;;;;;;14.76;68.21;91768.78;2055082;69;20667;-76
2023/10/30 10:35:55;;;;;;;8.32;5.80;;;;;;;14.98;69.03;91758.09;2054898;69;20308;-77
2023/10/30 10:38:22;;;;;;;14.77;7.15;;;;;;;15.17;68.06;91748.75;2054798;69;20141;-77
2023/10/30 10:40:49;;;;;;;10.98;7.57;;;;;;;15.44;66.52;91718.28;2054893;69;20154;-78
2023/10/30 10:43:19;;;;;;;11.77;7.70;;;;;;;16.24;65.13;91732.44;2054929;69;20141;-76
2023/10/30 10:45:49;;;;;;;11.82;7.68;;;;;;;16.58;64.15;91709.06;2054950;69;20149;-76
2023/10/30 10:48:16;;;;;;;10.80;6.60;;;;;;;16.46;62.82;91704.56;2055097;69;20220;-77
2023/10/30 10:50:42;;;;;;;9.55;5.82;;;;;;;16.01;63.86;91702.78;2057167;69;20229;-77
2023/10/30 10:53:10;;;;;;;12.70;6.25;;;;;;;16.57;62.72;91693.44;2054961;69;20138;-76
2023/10/30 10:55:42;;;;;;;9.70;5.72;;;;;;;17.28;60.68;91683.59;2054798;69;20138;-76
2023/10/30 10:58:10;;;;;;;9.30;5.70;;;;;;;16.71;61.88;91682.38;2054324;70;20173;-77
2023/10/30 11:00:40;;;;;;;9.20;5.22;;;;;;;15.88;64.68;91678.31;2054999;69;20138;-76
2023/10/30 11:03:07;;;;;;;7.72;5.75;;;;;;;16.02;64.70;91678.66;2054425;69;20134;-78
2023/10/30 11:05:37;;;;;;;9.10;5.45;;;;;;;15.65;65.26;91683.41;2054999;69;20138;-77
2023/10/30 11:08:40;;;;;;;7.68;5.40;;;;;;;15.57;65.60;91673.94;2055023;69;20180;-76
2023/10/30 11:11:12;;;;;;;10.43;4.93;;;;;;;15.58;66.20;91664.03;2054976;69;20228;-75
2023/10/30 11:13:58;;;;;;;6.70;5.20;;;;;;;15.30;66.59;91659.06;2055248;69;20150;-75
2023/10/30 11:16:33;;;;;;;9.55;4.85;;;;;;;15.03;65.20;91645.56;2055327;69;20152;-75
2023/10/30 11:18:59;;;;;;;8.85;5.07;;;;;;;15.30;65.59;91647.00;2055298;69;20189;-75
2023/10/30 11:21:28;;;;;;;9.00;6.40;;;;;;;15.37;65.69;91654.28;2055159;69;20150;-76
2023/10/30 11:23:57;;;;;;;11.52;6.97;;;;;;;15.30;67.41;91639.22;2055235;69;20602;-78
2023/10/30 11:26:41;;;;;;;10.73;6.63;;;;;;;15.24;68.67;91636.22;2055285;69;20255;-76
2023/10/30 11:29:08;;;;;;;12.73;8.45;;;;;;;15.32;68.33;91644.97;2055455;69;20641;-74
2023/10/30 11:31:53;;;;;;;19.98;11.75;;;;;;;15.21;68.79;91655.31;2055436;70;20233;-75
2023/10/30 11:34:23;;;;;;;12.75;7.93;;;;;;;15.25;68.62;91669.56;2055315;69;20150;-75
2023/10/30 11:36:51;;;;;;;12.68;7.80;;;;;;;15.46;68.53;91673.69;2055303;69;20676;-75